createdAt,value
2023-01-01T00:02:24.232Z,6.98
2023-01-01T00:04:51.101Z,6.82
2023-01-01T00:07:17.724Z,6.57
2023-01-01T00:10:02.783Z,6.62
2023-01-01T00:12:29.464Z,6.62
2023-01-01T00:14:56.129Z,6.52
2023-01-01T00:17:22.791Z,6.49
2023-01-01T00:19:49.540Z,6.39
2023-01-01T00:22:52.514Z,6.24
2023-01-01T00:25:02.955Z,6.11
2023-01-01T00:27:29.590Z,6.05
2023-01-01T00:29:56.420Z,6.12
2023-01-01T00:32:23.412Z,6.01
2023-01-01T00:34:50.823Z,6.08
2023-01-01T00:37:18.325Z,5.97
2023-01-01T00:39:45.541Z,6.09
2023-01-01T00:42:12.191Z,5.96
2023-01-01T00:44:38.875Z,6.23
2023-01-01T00:47:05.829Z,5.90
2023-01-01T00:49:32.576Z,5.72
2023-01-01T00:51:59.309Z,5.73
2023-01-01T00:54:26.061Z,5.75
2023-01-01T00:56:52.832Z,5.70
2023-01-01T00:59:21.581Z,5.71
2023-01-01T01:01:52.260Z,5.74
2023-01-01T01:04:18.968Z,5.84
2023-01-01T01:06:45.603Z,5.79
2023-01-01T01:09:12.216Z,5.82
2023-01-01T01:11:38.837Z,5.68
2023-01-01T01:14:05.492Z,5.54
2023-01-01T01:16:34.871Z,5.49
2023-01-01T01:19:04.435Z,5.52
2023-01-01T01:21:32.772Z,5.49
2023-01-01T01:24:00.573Z,5.49
2023-01-01T01:26:30.305Z,5.41
2023-01-01T01:28:57.482Z,5.32
2023-01-01T01:31:26.994Z,5.46
2023-01-01T01:33:53.701Z,5.50
2023-01-01T01:36:20.449Z,5.14
2023-01-01T01:38:47.426Z,5.14
2023-01-01T01:41:26.684Z,5.28
2023-01-01T01:43:58.459Z,5.47
2023-01-01T01:46:41.829Z,5.49
2023-01-01T01:49:32.068Z,5.35
2023-01-01T01:52:00.732Z,5.12
2023-01-01T01:54:28.752Z,5.13
2023-01-01T01:57:00.122Z,5.35
2023-01-01T01:59:32.788Z,5.16
2023-01-01T02:02:00.474Z,5.33
2023-01-01T02:04:27.391Z,5.39
2023-01-01T02:06:55.720Z,5.36
2023-01-01T02:09:22.555Z,5.47
2023-01-01T02:11:49.476Z,5.39
2023-01-01T02:14:16.162Z,5.20
2023-01-01T02:16:42.709Z,5.35
2023-01-01T02:19:35.705Z,4.71
2023-01-01T02:22:41.362Z,5.22
2023-01-01T02:25:26.238Z,5.32
2023-01-01T02:28:15.765Z,4.95
2023-01-01T02:30:45.776Z,4.92
2023-01-01T02:33:18.291Z,4.91
2023-01-01T02:36:01.734Z,4.73
2023-01-01T02:38:39.494Z,4.83
2023-01-01T02:41:11.958Z,4.66
2023-01-01T02:43:39.892Z,4.60
2023-01-01T02:46:12.520Z,4.69
2023-01-01T02:48:43.563Z,4.65
2023-01-01T02:51:28.942Z,4.83
2023-01-01T02:54:18.612Z,4.75
2023-01-01T02:56:58.214Z,4.79
2023-01-01T02:59:52.538Z,4.74
2023-01-01T03:02:45.349Z,4.73
2023-01-01T03:05:30.390Z,4.69
2023-01-01T03:08:03.440Z,4.71
2023-01-01T03:10:58.762Z,4.62
2023-01-01T03:13:29.280Z,4.53
2023-01-01T03:16:00.679Z,4.70
2023-01-01T03:18:39.223Z,4.83
2023-01-01T03:21:08.476Z,4.48
2023-01-01T03:23:49.700Z,4.78
2023-01-01T03:26:20.461Z,4.60
2023-01-01T03:28:55.117Z,4.74
2023-01-01T03:31:25.597Z,4.55
2023-01-01T03:34:02.256Z,4.83
2023-01-01T03:36:35.397Z,4.72
2023-01-01T03:39:19.215Z,4.55
2023-01-01T03:42:05.821Z,4.75
2023-01-01T03:44:38.474Z,4.65
2023-01-01T03:47:06.669Z,4.66
2023-01-01T03:49:34.480Z,4.51
2023-01-01T03:52:07.278Z,4.80
2023-01-01T03:54:58.559Z,4.71
2023-01-01T03:57:34.441Z,4.57
2023-01-01T04:00:11.816Z,4.71
2023-01-01T04:03:10.685Z,4.65
2023-01-01T04:05:40.504Z,4.58
2023-01-01T04:08:08.511Z,4.48
2023-01-01T04:10:39.560Z,4.35
2023-01-01T04:13:09.479Z,4.18
2023-01-01T04:15:36.187Z,4.41
2023-01-01T04:18:03.819Z,4.43
2023-01-01T04:20:31.105Z,4.37
2023-01-01T04:23:02.165Z,4.09
2023-01-01T04:25:29.874Z,3.86
2023-01-01T04:27:58.167Z,4.04
2023-01-01T04:30:25.150Z,3.93
2023-01-01T04:32:51.760Z,3.81
2023-01-01T04:35:18.667Z,4.07
2023-01-01T04:37:46.169Z,4.00
2023-01-01T04:40:14.147Z,3.86
2023-01-01T04:42:41.247Z,3.89
2023-01-01T04:45:08.650Z,3.76
2023-01-01T04:47:35.452Z,3.85
2023-01-01T04:50:02.166Z,3.72
2023-01-01T04:52:28.903Z,3.79
2023-01-01T04:54:55.750Z,3.56
2023-01-01T04:57:22.360Z,3.63
2023-01-01T04:59:48.950Z,3.73
2023-01-01T05:02:15.635Z,3.75
2023-01-01T05:04:42.422Z,3.62
2023-01-01T05:07:09.058Z,3.46
2023-01-01T05:09:35.917Z,3.35
2023-01-01T05:12:02.581Z,3.43
2023-01-01T05:14:30.665Z,3.53
2023-01-01T05:16:57.337Z,3.41
2023-01-01T05:19:24.008Z,3.35
2023-01-01T05:21:50.584Z,3.47
2023-01-01T05:24:17.255Z,3.54
2023-01-01T05:26:45.189Z,3.73
2023-01-01T05:29:16.480Z,3.55
2023-01-01T05:31:45.558Z,3.69
2023-01-01T05:34:12.482Z,3.42
2023-01-01T05:36:39.506Z,3.46
2023-01-01T05:39:12.530Z,3.50
2023-01-01T05:41:40.278Z,3.47
2023-01-01T05:44:09.079Z,3.26
2023-01-01T05:46:36.640Z,3.31
2023-01-01T05:49:03.866Z,3.34
2023-01-01T05:53:59.334Z,3.31
2023-01-01T05:56:27.055Z,3.34
2023-01-01T05:58:54.896Z,3.37
2023-01-01T06:01:26.954Z,3.36
2023-01-01T06:03:55.831Z,3.23
2023-01-01T06:06:26.072Z,2.81
2023-01-01T06:08:55.543Z,3.18
2023-01-01T06:11:22.310Z,3.14
2023-01-01T06:13:54.365Z,3.17
2023-01-01T06:16:21.668Z,3.20
2023-01-01T06:18:48.578Z,3.12
2023-01-01T06:21:18.366Z,2.75
2023-01-01T06:23:45.232Z,2.93
2023-01-01T06:26:16.921Z,2.81
2023-01-01T06:28:44.649Z,3.03
2023-01-01T06:31:13.359Z,2.79
2023-01-01T06:33:40.352Z,2.77
2023-01-01T06:36:10.082Z,2.82
2023-01-01T06:38:40.788Z,2.94
2023-01-01T06:41:13.482Z,2.94
2023-01-01T06:43:40.311Z,2.86
2023-01-01T06:46:15.870Z,2.91
2023-01-01T06:48:43.119Z,2.80
2023-01-01T06:51:12.200Z,2.75
2023-01-01T06:53:39.097Z,2.67
2023-01-01T06:56:06.402Z,2.89
2023-01-01T06:58:33.304Z,2.91
2023-01-01T07:01:10.315Z,2.94
2023-01-01T07:03:38.382Z,2.88
2023-01-01T07:06:06.243Z,2.79
2023-01-01T07:08:33.168Z,2.88
2023-01-01T07:10:59.938Z,2.73
2023-01-01T07:13:31.051Z,2.92
2023-01-01T07:16:00.272Z,2.99
2023-01-01T07:18:27.076Z,2.78
2023-01-01T07:20:56.056Z,3.07
2023-01-01T07:23:23.324Z,3.30
2023-01-01T07:25:51.441Z,3.32
2023-01-01T07:28:18.879Z,3.26
2023-01-01T07:30:46.211Z,3.00
2023-01-01T07:33:16.253Z,3.08
2023-01-01T07:35:44.995Z,3.19
2023-01-01T07:38:12.152Z,3.10
2023-01-01T07:40:39.503Z,3.05
2023-01-01T07:43:06.975Z,3.16
2023-01-01T07:45:34.205Z,3.16
2023-01-01T07:48:02.113Z,3.15
2023-01-01T07:50:31.885Z,3.07
2023-01-01T07:52:58.866Z,3.13
2023-01-01T07:55:25.484Z,2.88
2023-01-01T07:57:52.104Z,3.11
2023-01-01T08:00:20.710Z,3.17
2023-01-01T08:02:48.078Z,3.36
2023-01-01T08:05:14.804Z,3.44
2023-01-01T08:07:46.674Z,3.55
2023-01-01T08:10:13.985Z,3.69
2023-01-01T08:12:40.789Z,3.71
2023-01-01T08:15:08.383Z,3.97
2023-01-01T08:17:34.992Z,3.72
2023-01-01T08:20:01.629Z,3.85
2023-01-01T08:22:28.218Z,3.81
2023-01-01T08:24:55.082Z,4.08
2023-01-01T08:27:21.745Z,4.01
2023-01-01T08:29:48.330Z,4.20
2023-01-01T08:32:15.169Z,4.24
2023-01-01T08:34:41.811Z,4.40
2023-01-01T08:37:13.665Z,4.32
2023-01-01T08:39:40.627Z,4.32
2023-01-01T08:42:12.178Z,4.71
2023-01-01T08:44:39.232Z,4.60
2023-01-01T08:47:05.839Z,4.54
2023-01-01T08:49:32.808Z,4.62
2023-01-01T08:51:59.383Z,4.70
2023-01-01T08:54:25.992Z,4.58
2023-01-01T08:56:52.617Z,4.81
2023-01-01T08:59:21.351Z,5.21
2023-01-01T09:01:48.088Z,5.31
2023-01-01T09:04:15.936Z,5.53
2023-01-01T09:06:42.656Z,5.61
2023-01-01T09:09:09.227Z,5.66
2023-01-01T09:11:36.357Z,5.55
2023-01-01T09:14:02.968Z,5.74
2023-01-01T09:16:29.682Z,5.83
2023-01-01T09:18:56.436Z,5.92
2023-01-01T09:21:23.018Z,6.14
2023-01-01T09:23:49.626Z,6.33
2023-01-01T09:26:16.485Z,6.17
2023-01-01T09:28:43.109Z,6.13
2023-01-01T09:31:09.858Z,6.31
2023-01-01T09:33:36.525Z,6.34
2023-01-01T09:36:33.209Z,6.50
2023-01-01T09:39:00.520Z,6.47
2023-01-01T09:41:54.587Z,6.59
2023-01-01T09:44:30.203Z,6.66
2023-01-01T09:47:02.395Z,6.68
2023-01-01T09:49:37.999Z,6.77
2023-01-01T09:52:25.335Z,6.73
2023-01-01T09:54:59.003Z,6.99
2023-01-01T09:57:32.142Z,6.87
2023-01-01T09:59:59.918Z,7.13
2023-01-01T10:02:48.244Z,7.18
2023-01-01T10:05:38.367Z,7.29
2023-01-01T10:08:22.968Z,7.59
2023-01-01T10:11:05.001Z,7.83
2023-01-01T10:13:39.752Z,7.94
2023-01-01T10:16:24.011Z,8.09
2023-01-01T10:18:56.230Z,8.33
2023-01-01T10:21:41.987Z,8.34
2023-01-01T10:24:12.458Z,8.59
2023-01-01T10:26:40.234Z,8.46
2023-01-01T10:29:15.592Z,8.46
2023-01-01T10:31:45.874Z,8.98
2023-01-01T10:34:18.244Z,8.98
2023-01-01T10:36:45.591Z,9.02
2023-01-01T10:39:18.591Z,9.08
2023-01-01T10:41:46.120Z,9.25
2023-01-01T10:44:15.599Z,9.19
2023-01-01T10:46:46.629Z,9.48
2023-01-01T10:49:14.638Z,9.59
2023-01-01T10:51:50.633Z,9.69
2023-01-01T10:54:36.518Z,9.76
2023-01-01T10:57:27.900Z,9.85
2023-01-01T11:00:10.068Z,10.24
2023-01-01T11:02:37.322Z,10.65
2023-01-01T11:05:20.784Z,11.22
2023-01-01T11:07:48.892Z,11.51
2023-01-01T11:10:26.266Z,11.82
2023-01-01T11:13:09.810Z,11.99
2023-01-01T11:15:42.593Z,12.06
2023-01-01T11:18:27.315Z,12.23
2023-01-01T11:20:56.655Z,12.25
2023-01-01T11:23:39.103Z,12.26
2023-01-01T11:26:18.076Z,12.36
2023-01-01T11:29:17.230Z,12.42
2023-01-01T11:31:46.989Z,12.48
2023-01-01T11:34:29.730Z,12.56
2023-01-01T11:37:14.590Z,12.67
2023-01-01T11:39:50.346Z,12.59
2023-01-01T11:42:22.529Z,12.84
2023-01-01T11:44:54.183Z,12.87
2023-01-01T11:47:23.306Z,12.87
2023-01-01T11:49:59.733Z,12.85
2023-01-01T11:52:29.576Z,12.96
2023-01-01T11:55:08.708Z,12.89
2023-01-01T11:57:36.547Z,12.99
2023-01-01T12:00:04.970Z,12.98
2023-01-01T12:02:57.862Z,12.65
2023-01-01T12:05:29.646Z,12.75
2023-01-01T12:08:00.233Z,12.68
2023-01-01T12:10:55.645Z,12.87
2023-01-01T12:13:28.032Z,12.91
2023-01-01T12:16:02.871Z,13.07
2023-01-01T12:18:40.741Z,13.03
2023-01-01T12:21:15.060Z,12.95
2023-01-01T12:23:41.944Z,12.97
2023-01-01T12:26:24.521Z,13.15
2023-01-01T12:29:09.873Z,13.19
2023-01-01T12:32:18.464Z,13.21
2023-01-01T12:35:12.861Z,13.21
2023-01-01T12:37:54.833Z,13.19
2023-01-01T12:40:29.853Z,13.04
2023-01-01T12:43:09.014Z,13.08
2023-01-01T12:45:40.536Z,13.08
2023-01-01T12:48:31.932Z,13.05
2023-01-01T12:51:05.411Z,13.00
2023-01-01T12:53:38.557Z,13.03
2023-01-01T12:56:20.723Z,12.98
2023-01-01T12:58:58.812Z,12.93
2023-01-01T13:01:34.088Z,13.07
2023-01-01T13:04:04.179Z,12.86
2023-01-01T13:06:47.179Z,13.07
2023-01-01T13:09:19.814Z,13.02
2023-01-01T13:11:51.185Z,13.06
2023-01-01T13:14:17.915Z,13.07
2023-01-01T13:16:51.833Z,12.98
2023-01-01T13:19:26.381Z,12.95
2023-01-01T13:21:53.335Z,12.92
2023-01-01T13:24:23.369Z,13.07
2023-01-01T13:26:50.877Z,13.03
2023-01-01T13:29:20.587Z,13.01
2023-01-01T13:31:47.230Z,13.05
2023-01-01T13:34:51.256Z,12.88
2023-01-01T13:37:24.005Z,12.81
2023-01-01T13:39:54.083Z,12.67
2023-01-01T13:42:52.718Z,12.58
2023-01-01T13:48:41.212Z,12.44
2023-01-01T13:52:04.004Z,12.55
2023-01-01T13:54:39.980Z,12.44
2023-01-01T13:57:40.897Z,12.37
2023-01-01T14:00:07.406Z,12.36
2023-01-01T14:02:46.546Z,12.24
2023-01-01T14:05:16.648Z,12.32
2023-01-01T14:07:53.191Z,12.33
2023-01-01T14:10:32.963Z,12.30
2023-01-01T14:13:05.735Z,12.41
2023-01-01T14:15:37.698Z,12.42
2023-01-01T14:18:11.049Z,12.29
2023-01-01T14:20:46.416Z,12.29
2023-01-01T14:23:19.190Z,12.43
2023-01-01T14:25:46.649Z,12.37
2023-01-01T14:28:24.766Z,12.23
2023-01-01T14:30:52.282Z,12.20
2023-01-01T14:33:25.711Z,12.34
2023-01-01T14:35:55.040Z,12.36
2023-01-01T14:38:29.952Z,12.07
2023-01-01T14:41:39.625Z,12.21
2023-01-01T14:44:13.853Z,12.10
2023-01-01T14:46:43.686Z,11.91
2023-01-01T14:49:18.613Z,11.80
2023-01-01T14:51:51.657Z,11.77
2023-01-01T14:54:21.295Z,11.83
2023-01-01T14:56:51.409Z,11.66
2023-01-01T14:59:28.653Z,11.72
2023-01-01T15:02:20.858Z,11.49
2023-01-01T15:04:48.496Z,11.43
2023-01-01T15:07:27.636Z,11.30
2023-01-01T15:09:56.733Z,10.72
2023-01-01T15:12:24.168Z,10.98
2023-01-01T15:14:52.666Z,11.14
2023-01-01T15:17:21.706Z,10.98
2023-01-01T15:20:07.426Z,10.83
2023-01-01T15:22:39.039Z,10.93
2023-01-01T15:25:11.953Z,10.75
2023-01-01T15:27:38.703Z,10.69
2023-01-01T15:30:13.198Z,10.55
2023-01-01T15:32:41.105Z,10.42
2023-01-01T15:35:26.186Z,10.42
2023-01-01T15:38:20.608Z,10.30
2023-01-01T15:40:52.944Z,10.06
2023-01-01T15:43:25.530Z,10.16
2023-01-01T15:45:56.551Z,10.10
2023-01-01T15:48:40.934Z,10.13
2023-01-01T15:51:15.074Z,10.14
2023-01-01T15:54:06.329Z,10.15
2023-01-01T15:56:39.424Z,10.04
2023-01-01T15:59:17.588Z,10.04
2023-01-01T16:01:46.531Z,9.85
2023-01-01T16:04:13.062Z,10.00
2023-01-01T16:06:54.352Z,9.77
2023-01-01T16:09:22.571Z,9.83
2023-01-01T16:11:57.424Z,9.80
2023-01-01T16:14:24.488Z,9.64
2023-01-01T16:16:56.881Z,9.83
2023-01-01T16:19:24.611Z,9.73
2023-01-01T16:21:51.290Z,9.73
2023-01-01T16:24:19.585Z,9.65
2023-01-01T16:26:47.700Z,9.55
2023-01-01T16:29:14.804Z,9.39
2023-01-01T16:31:42.759Z,9.18
2023-01-01T16:34:14.594Z,9.12
2023-01-01T16:36:42.481Z,9.10
2023-01-01T16:39:09.398Z,9.22
2023-01-01T16:41:36.476Z,9.15
2023-01-01T16:44:03.439Z,8.96
2023-01-01T16:46:30.300Z,8.67
2023-01-01T16:48:57.069Z,8.61
2023-01-01T16:51:26.981Z,8.73
2023-01-01T16:53:53.811Z,8.54
2023-01-01T16:56:21.404Z,8.64
2023-01-01T16:58:50.033Z,8.53
2023-01-01T17:01:17.409Z,8.53
2023-01-01T17:03:44.127Z,8.25
2023-01-01T17:06:10.930Z,8.30
2023-01-01T17:08:38.611Z,8.63
2023-01-01T17:11:09.985Z,8.75
2023-01-01T17:13:40.194Z,8.70
2023-01-01T17:16:07.601Z,8.85
2023-01-01T17:19:12.873Z,8.90
2023-01-01T17:21:21.414Z,8.93
2023-01-01T17:23:51.496Z,8.91
2023-01-01T17:26:21.043Z,8.69
2023-01-01T17:28:53.582Z,8.85
2023-01-01T17:31:24.878Z,8.85
2023-01-01T17:33:51.697Z,8.69
2023-01-01T17:36:18.627Z,8.73
2023-01-01T17:38:45.497Z,8.64
2023-01-01T17:41:16.731Z,8.57
2023-01-01T17:43:46.028Z,8.49
2023-01-01T17:46:21.654Z,8.42
2023-01-01T17:48:49.208Z,8.29
2023-01-01T17:51:17.053Z,8.26
2023-01-01T17:53:44.557Z,8.13
2023-01-01T17:56:13.637Z,8.11
2023-01-01T17:58:42.104Z,8.22
2023-01-01T18:01:26.452Z,8.26
2023-01-01T18:03:58.942Z,8.24
2023-01-01T18:06:26.185Z,8.12
2023-01-01T18:08:57.564Z,8.33
2023-01-01T18:11:26.097Z,8.22
2023-01-01T18:13:52.764Z,8.20
2023-01-01T18:16:19.486Z,7.76
2023-01-01T18:18:46.171Z,7.87
2023-01-01T18:21:19.292Z,7.58
2023-01-01T18:23:46.809Z,7.60
2023-01-01T18:26:13.409Z,7.64
2023-01-01T18:28:40.919Z,7.58
2023-01-01T18:31:15.681Z,7.42
2023-01-01T18:33:43.599Z,7.48
2023-01-01T18:36:13.233Z,7.44
2023-01-01T18:38:43.763Z,7.28
2023-01-01T18:41:31.811Z,7.40
2023-01-01T18:44:00.064Z,7.36
2023-01-01T18:46:29.206Z,7.12
2023-01-01T18:48:59.274Z,6.98
2023-01-01T18:51:26.608Z,6.93
2023-01-01T18:53:57.536Z,6.88
2023-01-01T18:56:25.081Z,6.85
2023-01-01T18:58:54.943Z,6.73
2023-01-01T19:01:24.115Z,6.63
2023-01-01T19:03:54.778Z,6.56
2023-01-01T19:06:29.669Z,6.63
2023-01-01T19:09:17.960Z,6.50
2023-01-01T19:11:51.139Z,6.53
2023-01-01T19:14:23.551Z,6.49
2023-01-01T19:16:52.435Z,6.49
2023-01-01T19:19:22.736Z,6.65
2023-01-01T19:21:52.560Z,6.53
2023-01-01T19:24:23.500Z,6.61
2023-01-01T19:27:02.139Z,6.53
2023-01-01T19:29:30.566Z,6.38
2023-01-01T19:31:58.451Z,6.35
2023-01-01T19:34:25.582Z,6.34
2023-01-01T19:36:52.708Z,6.20
2023-01-01T19:39:19.783Z,6.29
2023-01-01T19:41:47.179Z,6.21
2023-01-01T19:44:13.781Z,6.00
2023-01-01T19:46:40.522Z,5.94
2023-01-01T19:49:07.188Z,5.93
2023-01-01T19:51:33.817Z,5.73
2023-01-01T19:54:00.529Z,5.61
2023-01-01T19:56:27.267Z,5.71
2023-01-01T19:58:53.973Z,5.85
2023-01-01T20:01:20.730Z,5.66
2023-01-01T20:03:56.742Z,5.68
2023-01-01T20:06:25.404Z,5.80
2023-01-01T20:08:52.832Z,5.60
2023-01-01T20:11:20.750Z,5.76
2023-01-01T20:13:47.621Z,5.76
2023-01-01T20:16:15.194Z,5.78
2023-01-01T20:18:42.553Z,5.68
2023-01-01T20:21:27.742Z,5.59
2023-01-01T20:23:55.525Z,5.58
2023-01-01T20:26:23.665Z,5.48
2023-01-01T20:29:09.044Z,5.69
2023-01-01T20:31:35.897Z,5.69
2023-01-01T20:34:02.590Z,5.42
2023-01-01T20:36:47.785Z,5.44
2023-01-01T20:39:14.440Z,5.66
2023-01-01T20:41:41.131Z,5.69
2023-01-01T20:44:07.708Z,5.66
2023-01-01T20:46:35.181Z,5.52
2023-01-01T20:49:01.827Z,5.40
2023-01-01T20:51:28.588Z,5.27
2023-01-01T20:53:55.668Z,5.49
2023-01-01T20:56:22.304Z,5.36
2023-01-01T20:58:53.272Z,5.19
2023-01-01T21:01:24.697Z,5.58
2023-01-01T21:03:51.369Z,5.67
2023-01-01T21:06:23.683Z,5.44
2023-01-01T21:08:51.270Z,5.21
2023-01-01T21:11:17.966Z,5.08
2023-01-01T21:13:45.143Z,5.04
2023-01-01T21:16:19.619Z,4.81
2023-01-01T21:18:47.837Z,4.92
2023-01-01T21:21:30.973Z,4.94
2023-01-01T21:24:02.179Z,4.85
2023-01-01T21:26:41.218Z,4.87
2023-01-01T21:29:14.764Z,4.88
2023-01-01T21:31:43.083Z,4.64
2023-01-01T21:34:21.873Z,4.85
2023-01-01T21:36:48.513Z,4.20
2023-01-01T21:39:16.458Z,4.75
2023-01-01T21:41:43.090Z,4.75
2023-01-01T21:44:15.502Z,4.74
2023-01-01T21:46:47.078Z,4.58
2023-01-01T21:49:36.512Z,4.72
2023-01-01T21:52:06.640Z,4.69
2023-01-01T21:54:36.398Z,4.82
2023-01-01T21:57:17.219Z,4.70
2023-01-01T21:59:46.616Z,4.74
2023-01-01T22:02:14.843Z,4.69
2023-01-01T22:04:46.468Z,4.42
2023-01-01T22:10:28.929Z,4.39
2023-01-01T22:13:00.630Z,4.43
2023-01-01T22:15:27.684Z,4.40
2023-01-01T22:18:23.499Z,4.40
2023-01-01T22:20:50.676Z,4.32
2023-01-01T22:23:27.406Z,4.42
2023-01-01T22:25:54.091Z,3.65
2023-01-01T22:28:26.682Z,4.00
2023-01-01T22:30:59.672Z,4.19
2023-01-01T22:33:38.069Z,4.17
2023-01-01T22:36:17.236Z,4.51
2023-01-01T22:38:44.056Z,4.13
2023-01-01T22:41:11.949Z,3.98
2023-01-01T22:43:42.596Z,4.15
2023-01-01T22:46:14.865Z,4.30
2023-01-01T22:48:41.568Z,4.12
2023-01-01T22:51:14.435Z,3.95
2023-01-01T22:53:41.129Z,3.97
2023-01-01T22:56:08.069Z,3.16
2023-01-01T22:58:34.786Z,3.31
2023-01-01T23:01:01.686Z,3.91
2023-01-01T23:03:28.518Z,4.10
2023-01-01T23:05:55.216Z,3.78
2023-01-01T23:08:22.089Z,3.77
2023-01-01T23:10:48.773Z,3.93
2023-01-01T23:13:34.502Z,3.88
2023-01-01T23:16:01.532Z,3.65
2023-01-01T23:18:33.871Z,3.66
2023-01-01T23:21:04.462Z,3.27
2023-01-01T23:23:31.834Z,3.46
2023-01-01T23:25:59.558Z,3.64
2023-01-01T23:28:28.369Z,3.81
2023-01-01T23:30:56.146Z,3.39
2023-01-01T23:33:23.025Z,3.51
2023-01-01T23:35:50.263Z,3.40
2023-01-01T23:38:17.164Z,3.21
2023-01-01T23:40:43.807Z,3.32
2023-01-01T23:43:10.405Z,3.13
2023-01-01T23:45:38.166Z,3.42
2023-01-01T23:48:05.368Z,3.38
2023-01-01T23:50:34.306Z,3.33
2023-01-01T23:53:01.374Z,3.45
2023-01-01T23:55:27.995Z,3.60
2023-01-01T23:57:54.581Z,3.36
